Terminal Aerodrome Forecast
Issued by NWS

Home | Current Version | Previous Version | Text Only | Print | Product List | Glossary On
Versions: 1 2 3 4 5 6 7 8 9 10 11 12 13 14 15 16 17 18 19 20 21 22 23 24 25 26 27 28 29 30 31 32 33 34 35 36 37 38 39 40 41 42 43 44 45 46 47 48 49 50
000
FTUS45 KBOU 221740
TAFAPA
TAF
KAPA 221740Z 2218/2318 35008KT P6SM BKN015 OVC025
     FM222000 32007KT P6SM SCT035 BKN070
     FM222200 34012KT P6SM VCSH SCT025 BKN050
      TEMPO 2222/2302 4SM -TSRA BKN025CB
     FM230200 03008KT P6SM VCTS SCT025CB OVC050
     FM230800 11005KT 2SM BR BKN012 OVC020
      TEMPO 2310/2314 1/2SM FG BKN006
     FM231500 08005KT 3SM BR BKN009 OVC015=

USA.gov is the U.S. government's official web portal to all federal, state and local government web resources and services.